createdAt,value
2022-12-31T08:40:14.581Z,76.07
2022-12-31T08:41:14.532Z,76.00
2022-12-31T08:42:14.520Z,75.56
2022-12-31T08:43:14.509Z,75.40
2022-12-31T08:44:14.492Z,75.16
2022-12-31T08:45:14.490Z,75.30
2022-12-31T08:46:14.560Z,74.96
2022-12-31T08:47:14.454Z,74.66
2022-12-31T08:48:14.437Z,74.76
2022-12-31T08:49:14.430Z,74.96
2022-12-31T08:50:14.428Z,74.66
2022-12-31T08:51:14.451Z,75.26
2022-12-31T08:52:14.392Z,75.26
2022-12-31T08:53:14.394Z,75.36
2022-12-31T08:54:14.364Z,74.96
2022-12-31T08:55:14.347Z,75.26
2022-12-31T08:56:14.365Z,75.26
2022-12-31T08:57:14.357Z,75.36
2022-12-31T08:58:14.317Z,75.06
2022-12-31T08:59:14.316Z,75.46
2022-12-31T09:00:14.296Z,75.26
2022-12-31T09:01:14.472Z,75.16
2022-12-31T09:02:14.340Z,75.56
2022-12-31T09:03:14.305Z,75.26
2022-12-31T09:04:14.312Z,75.67
2022-12-31T09:05:14.258Z,75.36
2022-12-31T09:06:14.234Z,75.36
2022-12-31T09:07:14.231Z,75.46
2022-12-31T09:08:14.203Z,75.36
2022-12-31T09:09:14.211Z,75.26
2022-12-31T09:10:14.185Z,75.26
2022-12-31T09:11:19.205Z,75.26
2022-12-31T09:12:15.192Z,74.86
2022-12-31T09:13:14.166Z,75.16
2022-12-31T09:14:14.177Z,75.06
2022-12-31T09:15:14.137Z,75.16
2022-12-31T09:16:14.184Z,75.36
2022-12-31T09:17:14.113Z,74.86
2022-12-31T09:18:14.106Z,75.06
2022-12-31T09:19:14.106Z,74.96
2022-12-31T09:20:14.102Z,75.46
2022-12-31T09:21:14.075Z,74.86
2022-12-31T09:22:14.054Z,74.86
2022-12-31T09:23:14.061Z,74.86
2022-12-31T09:24:14.053Z,75.26
2022-12-31T09:25:14.011Z,75.36
2022-12-31T09:26:13.996Z,75.26
2022-12-31T09:27:13.999Z,75.46
2022-12-31T09:28:14.007Z,75.36
2022-12-31T09:29:13.971Z,75.13
2022-12-31T09:30:13.984Z,75.26
2022-12-31T09:31:14.156Z,75.33
2022-12-31T09:32:13.933Z,75.56
2022-12-31T09:33:13.915Z,75.16
2022-12-31T09:34:13.924Z,74.96
2022-12-31T09:35:13.909Z,75.23
2022-12-31T09:36:13.888Z,75.23
2022-12-31T09:37:13.882Z,74.42
2022-12-31T09:38:13.880Z,74.62
2022-12-31T09:39:13.849Z,74.82
2022-12-31T09:40:13.852Z,74.82
2022-12-31T09:41:13.872Z,74.32
2022-12-31T09:42:13.828Z,74.32
2022-12-31T09:43:13.815Z,74.42
2022-12-31T09:44:13.843Z,74.42
2022-12-31T09:45:13.785Z,74.32
2022-12-31T09:46:13.827Z,74.62
2022-12-31T09:47:13.775Z,74.38
2022-12-31T09:48:13.760Z,74.52
2022-12-31T09:49:13.747Z,74.49
2022-12-31T09:50:13.726Z,74.49
2022-12-31T09:51:13.717Z,74.69
2022-12-31T09:52:13.703Z,74.73
2022-12-31T09:53:13.704Z,74.82
2022-12-31T09:54:13.678Z,74.73
2022-12-31T09:55:13.666Z,74.42
2022-12-31T09:56:13.673Z,74.42
2022-12-31T09:57:31.852Z,74.42
2022-12-31T09:58:14.666Z,74.52
2022-12-31T09:59:13.628Z,74.42
2022-12-31T10:00:13.646Z,74.93
2022-12-31T10:01:13.776Z,74.52
2022-12-31T10:02:13.930Z,74.62
2022-12-31T10:03:13.650Z,74.93
2022-12-31T10:04:13.575Z,74.32
2022-12-31T10:05:13.561Z,74.62
2022-12-31T10:06:13.567Z,74.52
2022-12-31T10:07:13.534Z,74.73
2022-12-31T10:08:13.585Z,74.82
2022-12-31T10:09:13.518Z,74.12
2022-12-31T10:10:13.520Z,73.68
2022-12-31T10:11:13.505Z,73.98
2022-12-31T10:12:13.475Z,73.98
2022-12-31T10:13:13.478Z,74.02
2022-12-31T10:14:13.470Z,74.18
2022-12-31T10:15:13.447Z,74.93
2022-12-31T10:16:13.471Z,74.42
2022-12-31T10:17:14.554Z,73.61
2022-12-31T10:18:13.423Z,74.22
2022-12-31T10:19:13.415Z,74.29
2022-12-31T10:20:13.405Z,74.32
2022-12-31T10:21:13.419Z,73.72
2022-12-31T10:22:13.365Z,73.61
2022-12-31T10:23:13.367Z,73.18
2022-12-31T10:24:13.362Z,73.38
2022-12-31T10:25:13.333Z,72.57
2022-12-31T10:26:13.375Z,72.67
2022-12-31T10:27:13.314Z,72.44
2022-12-31T10:28:13.308Z,72.67
2022-12-31T10:29:13.302Z,73.08
2022-12-31T10:30:13.304Z,72.57
2022-12-31T10:31:13.316Z,72.54
2022-12-31T10:32:13.283Z,72.64
2022-12-31T10:33:13.258Z,72.64
2022-12-31T10:34:13.238Z,72.77
2022-12-31T10:35:13.230Z,72.54
2022-12-31T10:36:13.200Z,72.37
2022-12-31T10:37:13.207Z,71.94
2022-12-31T10:38:14.183Z,72.37
2022-12-31T10:39:16.460Z,72.14
2022-12-31T10:40:14.173Z,72.24
2022-12-31T10:41:13.191Z,72.74
2022-12-31T10:42:13.158Z,72.88
2022-12-31T10:43:13.141Z,72.74
2022-12-31T10:44:13.115Z,72.14
2022-12-31T10:45:13.121Z,72.07
2022-12-31T10:46:16.342Z,71.73
2022-12-31T10:47:14.149Z,71.67
2022-12-31T10:48:13.113Z,71.94
2022-12-31T10:49:13.075Z,72.24
2022-12-31T10:50:13.046Z,72.34
2022-12-31T10:51:13.045Z,72.54
2022-12-31T10:52:13.034Z,72.44
2022-12-31T10:53:13.032Z,72.74
2022-12-31T10:54:13.000Z,72.77
2022-12-31T10:55:12.992Z,73.08
2022-12-31T10:56:12.975Z,72.94
2022-12-31T10:57:12.985Z,72.54
2022-12-31T10:58:16.084Z,72.94
2022-12-31T10:59:12.960Z,72.67
2022-12-31T11:00:12.936Z,73.08
2022-12-31T11:01:13.101Z,72.74
2022-12-31T11:02:13.117Z,72.57
2022-12-31T11:03:12.970Z,72.64
2022-12-31T11:04:12.916Z,72.34
2022-12-31T11:05:12.878Z,71.77
2022-12-31T11:06:12.878Z,71.73
2022-12-31T11:07:12.859Z,71.73
2022-12-31T11:08:12.877Z,71.73
2022-12-31T11:09:12.839Z,71.83
2022-12-31T11:10:12.827Z,71.83
2022-12-31T11:11:12.814Z,71.43
2022-12-31T11:12:13.793Z,71.53
2022-12-31T11:13:12.789Z,72.14
2022-12-31T11:14:12.800Z,71.53
2022-12-31T11:15:12.775Z,71.63
2022-12-31T11:16:12.784Z,71.83
2022-12-31T11:17:12.742Z,71.53
2022-12-31T11:18:12.730Z,71.53
2022-12-31T11:19:12.761Z,71.33
2022-12-31T11:20:12.741Z,71.43
2022-12-31T11:21:12.707Z,71.70
2022-12-31T11:22:12.698Z,71.60
2022-12-31T11:23:12.692Z,71.33
2022-12-31T11:24:12.685Z,71.40
2022-12-31T11:25:12.663Z,71.70
2022-12-31T11:26:12.649Z,71.13
2022-12-31T11:27:13.547Z,71.09
2022-12-31T11:28:12.638Z,71.09
2022-12-31T11:29:12.617Z,71.20
2022-12-31T11:30:12.652Z,70.59
2022-12-31T11:31:12.662Z,70.89
2022-12-31T11:32:12.570Z,71.00
2022-12-31T11:33:12.584Z,71.00
2022-12-31T11:34:12.578Z,70.50
2022-12-31T11:35:12.578Z,70.59
2022-12-31T11:36:12.583Z,70.16
2022-12-31T11:37:12.514Z,70.06
2022-12-31T11:38:12.506Z,70.36
2022-12-31T11:39:12.495Z,69.76
2022-12-31T11:40:12.495Z,70.19
2022-12-31T11:41:12.470Z,69.96
2022-12-31T11:42:12.483Z,70.29
2022-12-31T11:43:12.449Z,69.89
2022-12-31T11:44:12.431Z,70.19
2022-12-31T11:45:12.441Z,70.29
2022-12-31T11:46:12.481Z,70.26
2022-12-31T11:47:12.435Z,70.59
2022-12-31T11:49:13.382Z,70.79
2022-12-31T11:50:12.378Z,71.00
2022-12-31T11:51:12.373Z,70.59
2022-12-31T11:52:15.067Z,70.79
2022-12-31T11:53:12.335Z,71.03
2022-12-31T11:54:12.321Z,71.13
2022-12-31T11:55:12.315Z,71.13
2022-12-31T11:56:12.309Z,71.33
2022-12-31T11:57:12.314Z,71.03
2022-12-31T11:58:12.289Z,71.33
2022-12-31T11:59:19.024Z,71.63
2022-12-31T12:00:13.302Z,71.36
2022-12-31T12:01:12.264Z,71.73
2022-12-31T12:02:12.244Z,71.63
2022-12-31T12:03:12.330Z,71.56
2022-12-31T12:04:12.254Z,71.23
2022-12-31T12:05:12.227Z,71.33
2022-12-31T12:06:12.202Z,71.63
2022-12-31T12:07:16.690Z,71.56
2022-12-31T12:08:43.071Z,71.94
2022-12-31T12:10:29.266Z,71.33
2022-12-31T12:11:26.434Z,71.83
2022-12-31T12:12:25.419Z,72.17
2022-12-31T12:13:25.449Z,71.97
2022-12-31T12:14:25.392Z,71.97
2022-12-31T12:15:25.381Z,72.07
2022-12-31T12:16:25.427Z,71.77
2022-12-31T12:17:25.363Z,71.97
2022-12-31T12:18:25.335Z,71.97
2022-12-31T12:19:25.357Z,71.97
2022-12-31T12:20:25.320Z,72.37
2022-12-31T12:21:25.305Z,72.17
2022-12-31T12:22:25.338Z,72.37
2022-12-31T12:23:26.304Z,72.07
2022-12-31T12:24:25.277Z,72.07
2022-12-31T12:25:25.293Z,71.67
2022-12-31T12:26:25.259Z,71.97
2022-12-31T12:27:25.258Z,72.07
2022-12-31T12:28:25.220Z,71.94
2022-12-31T12:29:25.231Z,72.03
2022-12-31T12:30:25.220Z,72.03
2022-12-31T12:31:25.212Z,71.77
2022-12-31T12:32:25.186Z,71.63
2022-12-31T12:33:25.173Z,71.77
2022-12-31T12:34:25.159Z,71.63
2022-12-31T12:35:25.166Z,71.23
2022-12-31T12:36:25.144Z,71.13
2022-12-31T12:37:25.156Z,71.00
2022-12-31T12:38:25.158Z,70.93
2022-12-31T12:39:25.131Z,71.09
2022-12-31T12:40:33.095Z,70.59
2022-12-31T12:41:26.099Z,71.23
2022-12-31T12:42:25.086Z,70.73
2022-12-31T12:43:25.056Z,70.79
2022-12-31T12:44:25.042Z,70.63
2022-12-31T12:45:25.054Z,71.13
2022-12-31T12:46:25.036Z,70.93
2022-12-31T12:47:25.023Z,71.13
2022-12-31T12:48:24.995Z,70.93
2022-12-31T12:49:25.986Z,70.83
2022-12-31T12:50:24.977Z,71.60
2022-12-31T12:51:24.991Z,71.63
2022-12-31T12:52:24.967Z,71.73
2022-12-31T12:53:24.942Z,71.43
2022-12-31T12:54:24.946Z,71.83
2022-12-31T12:55:24.918Z,71.13
2022-12-31T12:56:24.919Z,71.23
2022-12-31T12:57:24.918Z,71.13
2022-12-31T12:58:24.881Z,71.50
2022-12-31T12:59:24.888Z,71.00
2022-12-31T13:00:24.861Z,71.03
2022-12-31T13:01:25.044Z,70.70
2022-12-31T13:02:24.981Z,71.20
2022-12-31T13:03:24.830Z,70.89
2022-12-31T13:04:40.200Z,71.00
2022-12-31T13:05:28.220Z,70.70
2022-12-31T13:06:24.812Z,70.50
2022-12-31T13:07:24.786Z,70.70
2022-12-31T13:08:24.771Z,70.79
2022-12-31T13:09:24.778Z,71.00
2022-12-31T13:10:24.784Z,71.03
2022-12-31T13:11:24.758Z,71.03
2022-12-31T13:12:24.743Z,70.93
2022-12-31T13:13:25.702Z,70.93
2022-12-31T13:14:24.731Z,71.23
2022-12-31T13:15:24.714Z,71.23
2022-12-31T13:16:24.698Z,71.23
2022-12-31T13:17:24.714Z,70.93
2022-12-31T13:18:24.671Z,71.03
2022-12-31T13:19:24.667Z,71.23
2022-12-31T13:20:24.649Z,71.13
2022-12-31T13:21:24.643Z,72.03
2022-12-31T13:22:24.611Z,71.73
2022-12-31T13:23:24.617Z,71.56
2022-12-31T13:24:24.607Z,71.63
2022-12-31T13:25:24.592Z,71.77
2022-12-31T13:26:24.600Z,71.67
2022-12-31T13:27:24.683Z,72.77
2022-12-31T13:28:38.287Z,74.89
2022-12-31T13:29:24.539Z,75.70
2022-12-31T13:30:24.534Z,75.23
2022-12-31T13:31:24.574Z,76.64
2022-12-31T13:32:24.511Z,76.23
2022-12-31T13:33:24.510Z,76.77
2022-12-31T13:34:24.505Z,76.71
2022-12-31T13:35:24.483Z,78.02
2022-12-31T13:36:24.454Z,77.42
2022-12-31T13:37:24.458Z,78.72
2022-12-31T13:38:55.186Z,79.03
2022-12-31T13:39:24.435Z,78.72
2022-12-31T13:40:24.427Z,78.86
2022-12-31T13:41:24.417Z,78.56
2022-12-31T13:42:24.424Z,78.76
2022-12-31T13:43:24.375Z,78.96
2022-12-31T13:44:24.397Z,79.36
2022-12-31T13:45:24.480Z,78.76
2022-12-31T13:46:24.349Z,78.56
2022-12-31T13:47:24.341Z,78.66
2022-12-31T13:52:04.172Z,78.32
2022-12-31T13:53:04.115Z,78.86
2022-12-31T13:54:04.108Z,78.32
2022-12-31T13:55:04.122Z,78.52
2022-12-31T13:56:04.102Z,78.36
2022-12-31T13:57:04.085Z,78.52
2022-12-31T13:58:04.087Z,78.56
2022-12-31T13:59:04.062Z,78.66
2022-12-31T14:00:04.072Z,78.26
2022-12-31T14:01:04.143Z,78.76
2022-12-31T14:02:04.170Z,78.56
2022-12-31T14:03:04.100Z,78.46
2022-12-31T14:04:04.001Z,78.66
2022-12-31T14:05:03.985Z,78.76
2022-12-31T14:06:04.001Z,78.96
2022-12-31T14:07:03.960Z,78.36
2022-12-31T14:08:03.964Z,78.86
2022-12-31T14:09:03.953Z,78.86
2022-12-31T14:10:03.928Z,79.06
2022-12-31T14:11:03.941Z,78.96
2022-12-31T14:12:03.921Z,78.96
2022-12-31T14:13:03.891Z,79.36
2022-12-31T14:14:03.904Z,79.47
2022-12-31T14:15:03.879Z,79.97
2022-12-31T14:16:03.954Z,79.36
2022-12-31T14:17:03.862Z,79.50
2022-12-31T14:18:03.879Z,78.80
2022-12-31T14:19:03.823Z,78.76
2022-12-31T14:20:03.830Z,78.66
2022-12-31T14:21:03.815Z,79.06
2022-12-31T14:22:03.824Z,78.76
2022-12-31T14:23:03.806Z,78.86
2022-12-31T14:24:03.781Z,78.46
2022-12-31T14:25:03.761Z,78.36
2022-12-31T14:26:03.757Z,78.70
2022-12-31T14:27:03.741Z,78.06
2022-12-31T14:28:03.758Z,78.26
2022-12-31T14:29:03.719Z,77.35
2022-12-31T14:30:03.720Z,77.45
2022-12-31T14:31:03.694Z,77.95
2022-12-31T14:32:03.744Z,77.25
2022-12-31T14:33:03.696Z,77.55
2022-12-31T14:34:03.669Z,76.91
2022-12-31T14:35:03.665Z,76.31
2022-12-31T14:36:09.982Z,76.40
2022-12-31T14:37:04.641Z,76.31
2022-12-31T14:38:03.630Z,76.31
2022-12-31T14:39:03.618Z,75.60
2022-12-31T14:40:03.714Z,75.20
2022-12-31T14:41:03.578Z,75.90
2022-12-31T14:42:03.568Z,75.60
2022-12-31T14:43:03.579Z,76.10
2022-12-31T14:44:03.559Z,76.20
2022-12-31T14:45:03.548Z,75.70
2022-12-31T14:46:03.631Z,76.00
2022-12-31T14:47:03.524Z,76.10
2022-12-31T14:48:03.511Z,75.90
2022-12-31T14:49:03.540Z,75.70
2022-12-31T14:50:03.638Z,75.60
2022-12-31T14:51:03.483Z,75.50
2022-12-31T14:52:03.468Z,75.50
2022-12-31T14:53:03.495Z,76.20
2022-12-31T14:54:03.443Z,75.50
2022-12-31T14:55:03.453Z,75.30
2022-12-31T14:56:03.422Z,74.79
2022-12-31T14:57:03.398Z,75.20
2022-12-31T14:58:32.083Z,74.79
2022-12-31T14:59:04.398Z,74.69
2022-12-31T15:00:03.482Z,74.69
2022-12-31T15:01:03.554Z,74.99
2022-12-31T15:02:03.728Z,74.69
2022-12-31T15:03:03.414Z,74.69
2022-12-31T15:04:03.333Z,74.39
2022-12-31T15:05:03.346Z,74.59
2022-12-31T15:06:03.310Z,74.46
2022-12-31T15:07:03.306Z,74.79
2022-12-31T15:08:04.299Z,74.39
2022-12-31T15:09:07.935Z,74.26
2022-12-31T15:10:04.296Z,74.49
2022-12-31T15:11:03.256Z,74.35
2022-12-31T15:12:03.229Z,73.85
2022-12-31T15:13:03.234Z,74.35
2022-12-31T15:14:03.240Z,73.85
2022-12-31T15:15:03.214Z,73.55
2022-12-31T15:16:03.211Z,73.35
2022-12-31T15:17:03.258Z,73.45
2022-12-31T15:18:03.199Z,73.35
2022-12-31T15:19:03.163Z,73.75
2022-12-31T15:20:03.141Z,72.94
2022-12-31T15:21:03.166Z,73.18
2022-12-31T15:22:03.114Z,73.65
2022-12-31T15:23:03.124Z,73.85
2022-12-31T15:24:03.091Z,73.68
2022-12-31T15:25:03.101Z,73.79
2022-12-31T15:26:03.120Z,72.78
2022-12-31T15:27:03.098Z,73.58
2022-12-31T15:28:03.066Z,73.14
2022-12-31T15:29:04.056Z,73.79
2022-12-31T15:30:03.024Z,73.08
2022-12-31T15:31:03.047Z,73.38
2022-12-31T15:32:03.025Z,73.18
2022-12-31T15:33:02.995Z,72.47
2022-12-31T15:34:03.025Z,72.78
2022-12-31T15:35:03.013Z,72.58
2022-12-31T15:36:02.957Z,72.78
2022-12-31T15:37:02.965Z,72.98
2022-12-31T15:38:02.953Z,72.78
2022-12-31T15:39:03.941Z,73.18
2022-12-31T15:40:02.932Z,73.01
2022-12-31T15:41:02.923Z,72.88
2022-12-31T15:42:36.785Z,72.88
2022-12-31T15:43:03.937Z,72.78
2022-12-31T15:44:02.879Z,72.61
2022-12-31T15:45:02.878Z,72.81
2022-12-31T15:46:02.905Z,73.01
2022-12-31T15:47:02.840Z,73.11
2022-12-31T15:48:02.852Z,73.42
2022-12-31T15:49:05.967Z,73.42
2022-12-31T15:50:03.841Z,73.42
2022-12-31T15:51:02.829Z,73.11
2022-12-31T15:52:03.778Z,73.42
2022-12-31T15:53:02.803Z,73.22
2022-12-31T15:54:02.778Z,73.11
